createdAt,value
2018-06-24T00:00:09.553Z,142.77
2018-06-24T00:02:49.113Z,142.60
2018-06-24T00:05:30.409Z,132.53
2018-06-24T00:08:12.073Z,129.07
2018-06-24T00:10:54.129Z,130.83
2018-06-24T00:13:35.093Z,126.90
2018-06-24T00:16:14.435Z,145.10
2018-06-24T00:18:54.431Z,135.67
2018-06-24T00:21:34.795Z,141.60
2018-06-24T00:24:14.274Z,138.50
2018-06-24T00:26:55.698Z,133.23
2018-06-24T00:29:37.495Z,143.73
2018-06-24T00:32:16.754Z,128.90
2018-06-24T00:34:57.155Z,119.63
2018-06-24T00:37:35.773Z,126.33
2018-06-24T00:40:15.459Z,123.40
2018-06-24T00:42:53.974Z,116.00
2018-06-24T00:45:33.817Z,105.43
2018-06-24T00:48:13.752Z,100.57
2018-06-24T00:50:54.834Z,90.40
2018-06-24T00:53:33.675Z,88.47
2018-06-24T00:56:12.818Z,104.07
2018-06-24T00:58:53.052Z,87.90
2018-06-24T01:01:33.898Z,84.63
2018-06-24T01:04:13.916Z,80.17
2018-06-24T01:06:56.514Z,101.10
2018-06-24T01:09:42.732Z,100.10
2018-06-24T01:12:22.394Z,90.23
2018-06-24T01:15:07.034Z,78.43
2018-06-24T01:17:51.535Z,85.50
2018-06-24T01:20:34.634Z,82.30
2018-06-24T01:23:15.012Z,85.33
2018-06-24T01:25:59.394Z,90.17
2018-06-24T01:28:41.792Z,87.97
2018-06-24T01:31:20.453Z,91.57
2018-06-24T01:34:00.051Z,96.53
2018-06-24T01:36:41.768Z,99.93
2018-06-24T01:39:25.992Z,83.63
2018-06-24T01:42:07.309Z,93.63
2018-06-24T01:44:49.836Z,109.30
2018-06-24T01:47:30.510Z,120.47
2018-06-24T01:50:12.516Z,119.10
2018-06-24T01:52:53.872Z,143.80
2018-06-24T01:55:48.110Z,142.13
2018-06-24T01:58:26.737Z,144.30
2018-06-24T02:01:05.219Z,170.97
2018-06-24T02:03:44.513Z,185.87
2018-06-24T02:06:24.728Z,206.40
2018-06-24T02:09:12.874Z,240.27
2018-06-24T02:11:54.894Z,220.23
2018-06-24T02:14:37.756Z,229.80
2018-06-24T02:17:20.278Z,230.97
2018-06-24T02:20:00.059Z,251.53
2018-06-24T02:22:40.336Z,268.67
2018-06-24T02:25:24.953Z,267.07
2018-06-24T02:28:07.978Z,289.03
2018-06-24T02:30:49.734Z,294.93
2018-06-24T02:33:31.175Z,256.63
2018-06-24T02:36:13.593Z,254.67
2018-06-24T02:38:55.836Z,238.57
2018-06-24T02:41:37.147Z,205.37
2018-06-24T02:44:18.013Z,269.47
2018-06-24T02:47:01.192Z,240.90
2018-06-24T02:49:42.793Z,259.60
2018-06-24T02:52:25.716Z,258.20
2018-06-24T02:55:09.074Z,202.43
2018-06-24T02:57:49.654Z,198.80
2018-06-24T03:00:32.536Z,122.53
2018-06-24T03:03:13.389Z,223.53
2018-06-24T03:05:57.577Z,269.17
2018-06-24T03:08:38.895Z,299.93
2018-06-24T03:11:23.035Z,290.60
2018-06-24T03:14:05.434Z,327.53
2018-06-24T03:16:46.991Z,343.23
2018-06-24T03:19:26.136Z,357.30
2018-06-24T03:22:10.016Z,378.37
2018-06-24T03:24:52.375Z,396.00
2018-06-24T03:27:37.674Z,196.60
2018-06-24T03:30:19.028Z,337.17
2018-06-24T03:33:03.056Z,278.60
2018-06-24T03:35:43.733Z,343.10
2018-06-24T03:38:22.496Z,406.27
2018-06-24T03:41:02.352Z,407.30
2018-06-24T03:43:41.973Z,425.27
2018-06-24T03:46:21.835Z,419.57
2018-06-24T03:49:03.249Z,418.73
2018-06-24T03:51:47.514Z,426.30
2018-06-24T03:54:29.713Z,419.97
2018-06-24T03:57:10.640Z,421.30
2018-06-24T03:59:52.538Z,419.20
2018-06-24T04:02:34.698Z,413.80
2018-06-24T04:05:15.699Z,418.03
2018-06-24T04:07:59.092Z,414.93
2018-06-24T04:10:40.484Z,417.73
2018-06-24T04:13:22.236Z,416.80
2018-06-24T04:16:10.660Z,406.90
2018-06-24T04:18:56.435Z,408.93
2018-06-24T04:21:38.232Z,418.87
2018-06-24T04:24:18.488Z,410.40
2018-06-24T04:26:58.780Z,390.40
2018-06-24T04:29:39.970Z,424.07
2018-06-24T04:32:21.993Z,398.17
2018-06-24T04:35:04.211Z,401.47
2018-06-24T04:37:46.692Z,409.87
2018-06-24T04:40:33.434Z,332.20
2018-06-24T04:43:15.991Z,346.80
2018-06-24T04:45:58.335Z,316.47
2018-06-24T04:48:39.834Z,239.20
2018-06-24T04:51:23.391Z,128.03
2018-06-24T04:54:05.337Z,113.27
2018-06-24T04:56:48.131Z,98.73
2018-06-24T04:59:29.131Z,125.63
2018-06-24T05:02:13.539Z,110.43
2018-06-24T05:04:55.030Z,237.80
2018-06-24T05:07:34.447Z,233.73
2018-06-24T05:10:12.112Z,844.80
2018-06-24T05:12:51.516Z,999.90
2018-06-24T05:15:31.510Z,999.90
2018-06-24T05:18:11.510Z,999.90
2018-06-24T05:20:49.852Z,999.90
2018-06-24T05:23:30.112Z,999.90
2018-06-24T05:26:08.795Z,999.90
2018-06-24T05:28:53.378Z,999.90
2018-06-24T05:31:36.052Z,999.90
2018-06-24T05:34:19.499Z,978.90
2018-06-24T05:36:58.092Z,631.53
2018-06-24T05:39:41.460Z,102.37
2018-06-24T05:42:22.978Z,229.57
2018-06-24T05:45:04.450Z,655.80
2018-06-24T05:47:47.082Z,735.07
2018-06-24T05:50:28.328Z,580.50
2018-06-24T05:53:06.594Z,716.37
2018-06-24T05:55:48.670Z,778.00
2018-06-24T05:58:30.789Z,863.07
2018-06-24T06:01:10.495Z,908.30
2018-06-24T06:03:50.694Z,999.90
2018-06-24T06:06:28.895Z,999.90
2018-06-24T06:09:15.957Z,999.90
2018-06-24T06:11:56.083Z,876.53
2018-06-24T06:14:40.594Z,999.90
2018-06-24T06:17:19.874Z,999.90
2018-06-24T06:20:05.814Z,999.90
2018-06-24T06:22:46.751Z,999.90
2018-06-24T06:25:33.668Z,999.90
2018-06-24T06:28:15.056Z,999.90
2018-06-24T06:30:57.336Z,999.90
2018-06-24T06:33:37.612Z,999.90
2018-06-24T06:36:20.895Z,999.90
2018-06-24T06:39:04.511Z,904.83
2018-06-24T06:41:47.212Z,999.90
2018-06-24T06:44:28.869Z,403.50
2018-06-24T06:47:08.234Z,999.90
2018-06-24T06:49:52.455Z,999.90
2018-06-24T06:52:37.597Z,999.90
2018-06-24T06:55:18.452Z,999.90
2018-06-24T06:58:02.093Z,999.90
2018-06-24T07:00:50.136Z,999.90
2018-06-24T07:03:33.094Z,619.07
2018-06-24T07:06:17.453Z,102.13
2018-06-24T07:09:00.875Z,54.07
2018-06-24T07:11:44.957Z,52.87
2018-06-24T07:14:26.230Z,68.87
2018-06-24T07:17:07.018Z,59.37
2018-06-24T07:19:47.273Z,158.20
2018-06-24T07:22:28.954Z,382.60
2018-06-24T07:25:11.754Z,629.63
2018-06-24T07:27:54.579Z,699.40
2018-06-24T07:30:36.235Z,786.73
2018-06-24T07:33:18.058Z,822.07
2018-06-24T07:35:59.991Z,873.37
2018-06-24T07:38:39.586Z,845.73
2018-06-24T07:41:22.094Z,836.07
2018-06-24T07:44:05.158Z,749.23
2018-06-24T07:46:49.612Z,711.57
2018-06-24T07:49:28.894Z,678.80
2018-06-24T07:52:08.516Z,581.10
2018-06-24T07:54:50.095Z,448.17
2018-06-24T07:57:30.353Z,273.90
2018-06-24T08:00:16.151Z,90.63
2018-06-24T08:02:57.911Z,110.33
2018-06-24T08:05:42.513Z,61.40
2018-06-24T08:08:24.672Z,34.93
2018-06-24T08:11:09.306Z,40.80
2018-06-24T08:13:54.356Z,81.50
2018-06-24T08:16:41.574Z,177.53
2018-06-24T08:19:23.415Z,334.13
2018-06-24T08:22:03.048Z,275.47
2018-06-24T08:24:46.474Z,294.53
2018-06-24T08:27:25.795Z,246.43
2018-06-24T08:30:13.030Z,256.87
2018-06-24T08:32:57.658Z,183.00
2018-06-24T08:35:38.835Z,92.90
2018-06-24T08:38:19.556Z,44.77
2018-06-24T08:41:03.478Z,31.60
2018-06-24T08:43:51.230Z,34.67
2018-06-24T08:46:33.353Z,42.10
2018-06-24T08:49:14.375Z,53.77
2018-06-24T08:52:02.950Z,63.17
2018-06-24T08:54:43.115Z,64.10
2018-06-24T08:57:23.235Z,62.83
2018-06-24T09:00:02.290Z,54.07
2018-06-24T09:02:49.010Z,47.40
2018-06-24T09:05:33.129Z,38.97
2018-06-24T09:08:11.353Z,35.83
2018-06-24T09:11:00.176Z,43.50
2018-06-24T09:13:41.655Z,38.63
2018-06-24T09:16:25.692Z,42.17
2018-06-24T09:19:12.338Z,46.43
2018-06-24T09:21:53.863Z,51.20
2018-06-24T09:24:34.777Z,70.33
2018-06-24T09:27:16.013Z,105.60
2018-06-24T09:30:00.141Z,161.27
2018-06-24T09:32:48.473Z,186.30
2018-06-24T09:35:36.185Z,247.20
2018-06-24T09:38:18.335Z,222.30
2018-06-24T09:41:01.231Z,242.10
2018-06-24T09:43:41.915Z,247.30
2018-06-24T09:46:31.111Z,255.07
2018-06-24T09:49:11.196Z,281.70
2018-06-24T09:51:53.315Z,291.80
2018-06-24T09:57:46.742Z,326.70
2018-06-24T10:00:28.241Z,331.53
2018-06-24T10:03:11.002Z,347.50
2018-06-24T10:05:50.560Z,347.60
2018-06-24T10:08:32.317Z,336.00
2018-06-24T10:11:12.419Z,298.47
2018-06-24T10:13:57.620Z,303.60
2018-06-24T10:16:41.237Z,310.73
2018-06-24T10:19:22.782Z,296.83
2018-06-24T10:22:08.802Z,306.30
2018-06-24T10:24:48.800Z,304.50
2018-06-24T10:27:30.646Z,345.90
2018-06-24T10:30:17.720Z,344.30
2018-06-24T10:33:03.902Z,332.87
2018-06-24T10:35:45.378Z,334.63
2018-06-24T10:38:32.440Z,330.20
2018-06-24T10:41:18.702Z,330.13
2018-06-24T10:44:00.965Z,330.23
2018-06-24T10:46:41.338Z,326.67
2018-06-24T10:49:22.623Z,343.90
2018-06-24T10:52:02.802Z,331.33
2018-06-24T10:54:45.360Z,307.10
2018-06-24T11:42:01.803Z,311.90
2018-06-24T11:44:51.675Z,356.80
2018-06-24T11:47:32.445Z,396.50
2018-06-24T11:50:14.019Z,430.50
2018-06-24T11:52:59.146Z,412.37
2018-06-24T12:46:10.084Z,92.97
2018-06-24T12:48:50.403Z,62.07
2018-06-24T12:51:32.024Z,85.80
2018-06-24T12:54:14.938Z,80.03
2018-06-24T12:56:57.256Z,86.53
2018-06-24T12:59:41.031Z,83.47
2018-06-24T13:02:23.964Z,66.57
2018-06-24T13:05:08.920Z,81.87
2018-06-24T13:07:58.264Z,146.60
2018-06-24T13:10:38.237Z,278.40
2018-06-24T13:13:23.019Z,365.43
2018-06-24T13:16:04.258Z,383.23
2018-06-24T13:18:46.983Z,427.57
2018-06-24T13:21:26.001Z,398.60
2018-06-24T13:24:07.658Z,440.20
2018-06-24T13:26:50.535Z,448.77
2018-06-24T13:29:33.738Z,424.30
2018-06-24T13:32:14.804Z,308.30
2018-06-24T13:34:57.064Z,286.57
2018-06-24T13:38:02.237Z,216.90
2018-06-24T13:40:46.357Z,236.93
2018-06-24T13:43:27.956Z,323.97
2018-06-24T13:46:09.479Z,366.63
2018-06-24T13:48:51.847Z,422.47
2018-06-24T13:51:35.240Z,489.07
2018-06-24T13:54:17.100Z,509.87
2018-06-24T13:56:54.901Z,437.23
2018-06-24T13:59:40.200Z,441.03
2018-06-24T14:02:21.944Z,395.80
2018-06-24T14:05:04.164Z,380.53
2018-06-24T14:07:50.928Z,473.23
2018-06-24T15:24:58.757Z,467.03
2018-06-24T15:27:47.715Z,462.43
2018-06-24T15:30:26.581Z,496.63
2018-06-24T15:33:06.761Z,357.27
2018-06-24T15:35:52.481Z,384.47
2018-06-24T15:41:57.741Z,472.87
2018-06-24T15:44:40.007Z,444.27
2018-06-24T15:47:22.639Z,481.40
2018-06-24T15:50:06.221Z,419.00
2018-06-24T15:53:07.008Z,358.23
2018-06-24T15:55:54.459Z,427.80
2018-06-24T15:58:36.360Z,442.07
2018-06-24T16:01:17.480Z,488.00
2018-06-24T16:03:58.502Z,443.93
2018-06-24T16:45:07.980Z,79.80
2018-06-24T16:47:50.823Z,94.77
2018-06-24T16:50:37.841Z,104.23
2018-06-24T16:53:18.602Z,39.17
2018-06-24T16:56:01.623Z,37.07
2018-06-24T16:58:43.397Z,46.73
2018-06-24T17:01:25.839Z,72.23
2018-06-24T17:04:02.565Z,37.87
2018-06-24T17:06:42.057Z,43.03
2018-06-24T17:09:24.581Z,38.37
2018-06-24T17:12:10.239Z,54.30
2018-06-24T17:14:50.550Z,42.47
2018-06-24T17:17:32.819Z,61.13
2018-06-24T17:20:20.118Z,36.17
2018-06-24T17:23:05.820Z,44.97
2018-06-24T17:25:48.739Z,54.10
2018-06-24T17:28:36.801Z,34.60
2018-06-24T17:31:22.538Z,98.80
2018-06-24T17:34:03.523Z,33.33
2018-06-24T17:36:46.486Z,69.67
2018-06-24T17:39:26.622Z,34.43
2018-06-24T17:42:09.206Z,38.67
2018-06-24T17:44:47.881Z,32.00
2018-06-24T17:47:29.322Z,61.33
2018-06-24T17:50:13.756Z,33.57
2018-06-24T17:52:55.541Z,41.13
2018-06-24T17:55:36.004Z,39.43
2018-06-24T17:58:15.677Z,36.33
2018-06-24T18:00:54.735Z,40.37
2018-06-24T18:03:35.960Z,35.67
2018-06-24T18:06:18.921Z,34.07
2018-06-24T18:09:03.225Z,35.30
2018-06-24T18:11:44.280Z,50.07
2018-06-24T18:14:25.388Z,31.00
2018-06-24T18:17:10.201Z,39.87
2018-06-24T18:19:54.043Z,46.50
2018-06-24T18:22:41.743Z,90.40
2018-06-24T18:25:27.979Z,72.80
2018-06-24T18:28:09.321Z,103.80
2018-06-24T18:30:56.039Z,122.50
2018-06-24T18:33:35.656Z,70.07
2018-06-24T18:36:16.758Z,100.50
2018-06-24T18:39:01.260Z,170.37
2018-06-24T18:41:43.302Z,101.10
2018-06-24T18:44:26.894Z,94.53
2018-06-24T18:47:10.154Z,52.63
2018-06-24T18:49:56.787Z,84.60
2018-06-24T18:52:42.899Z,121.53
2018-06-24T18:55:25.503Z,105.00
2018-06-24T18:58:08.137Z,132.30
2018-06-24T19:00:51.202Z,122.50
2018-06-24T19:03:33.935Z,146.40
2018-06-24T19:06:17.824Z,95.00
2018-06-24T19:08:58.922Z,104.53
2018-06-24T19:11:40.345Z,121.87
2018-06-24T19:14:22.220Z,68.20
2018-06-24T19:17:06.464Z,66.97
2018-06-24T19:19:48.001Z,395.73
2018-06-24T19:22:26.761Z,83.97
2018-06-24T19:25:16.177Z,49.40
2018-06-24T19:28:05.644Z,52.03
2018-06-24T19:30:47.146Z,40.10
2018-06-24T19:33:28.380Z,153.73
2018-06-24T19:36:12.006Z,44.17
2018-06-24T19:38:55.440Z,89.20
2018-06-24T19:41:37.602Z,36.20
2018-06-24T19:44:21.542Z,70.00
2018-06-24T19:47:04.921Z,59.43
2018-06-24T19:49:50.409Z,50.90
2018-06-24T19:52:34.817Z,79.30
2018-06-24T19:55:15.621Z,133.97
2018-06-24T19:58:01.461Z,63.67
2018-06-24T20:00:43.991Z,53.17
2018-06-24T20:03:28.961Z,51.57
2018-06-24T20:06:14.899Z,49.77
2018-06-24T20:08:59.442Z,67.63
2018-06-24T20:11:41.598Z,74.27
2018-06-24T20:14:21.498Z,58.03
2018-06-24T20:17:02.866Z,97.40
2018-06-24T20:19:45.303Z,57.17
2018-06-24T20:22:27.798Z,53.80
2018-06-24T20:25:10.100Z,55.83
2018-06-24T20:27:49.280Z,50.43
2018-06-24T20:30:28.883Z,55.10
2018-06-24T20:33:10.604Z,62.97
2018-06-24T20:35:51.617Z,60.10
2018-06-24T20:38:33.323Z,49.97
2018-06-24T20:41:14.957Z,55.83
2018-06-24T20:43:56.859Z,51.00
2018-06-24T20:46:38.137Z,62.57
2018-06-24T20:49:24.463Z,60.67
2018-06-24T20:52:06.583Z,97.00
2018-06-24T20:54:51.708Z,101.90
2018-06-24T20:57:31.705Z,258.00
2018-06-24T21:00:12.957Z,234.23
2018-06-24T21:02:54.581Z,378.30
2018-06-24T21:05:36.344Z,526.23
2018-06-24T21:08:19.559Z,703.37
2018-06-24T21:11:03.477Z,771.97
2018-06-24T21:13:50.798Z,771.27
2018-06-24T21:16:31.181Z,766.40
2018-06-24T21:19:21.438Z,760.53
2018-06-24T21:22:07.844Z,771.77
2018-06-24T21:24:53.398Z,780.13
2018-06-24T21:27:37.501Z,758.23
2018-06-24T21:30:21.397Z,756.97
2018-06-24T21:33:09.239Z,603.37
2018-06-24T21:35:49.797Z,409.10
2018-06-24T21:38:30.777Z,696.03
2018-06-24T21:41:13.619Z,726.97
2018-06-24T21:43:55.978Z,865.93
2018-06-24T21:46:38.896Z,897.13
2018-06-24T21:49:19.456Z,889.40
2018-06-24T21:52:01.839Z,908.20
2018-06-24T22:31:49.761Z,529.83
2018-06-24T22:34:34.242Z,768.97
2018-06-24T22:37:16.199Z,736.30
2018-06-24T22:39:56.861Z,392.53
2018-06-24T22:42:38.357Z,399.63
2018-06-24T22:45:24.301Z,93.03
2018-06-24T22:48:04.181Z,289.50
2018-06-24T23:26:23.057Z,999.90
2018-06-24T23:29:03.263Z,999.90
2018-06-24T23:31:41.638Z,999.90
2018-06-24T23:34:22.198Z,943.80
2018-06-24T23:37:02.920Z,881.37
2018-06-24T23:39:48.759Z,816.00
2018-06-24T23:42:28.538Z,493.73
2018-06-24T23:45:16.741Z,894.40
2018-06-24T23:47:58.763Z,796.37
2018-06-24T23:50:37.576Z,588.47
2018-06-24T23:53:17.597Z,812.75
2018-06-24T23:55:56.776Z,999.90
2018-06-24T23:58:36.700Z,713.83
